sensor_id;sensor_type;location;lat;lon;timestamp;temperature;humidity
26743;DHT22;14341;51.256;22.478;2023-04-16T00:00:42;7.50;99.90
26743;DHT22;14341;51.256;22.478;2023-04-16T00:03:48;7.60;99.90
26743;DHT22;14341;51.256;22.478;2023-04-16T00:06:52;7.60;99.90
26743;DHT22;14341;51.256;22.478;2023-04-16T00:09:55;7.50;99.90
26743;DHT22;14341;51.256;22.478;2023-04-16T00:12:58;7.40;99.90
26743;DHT22;14341;51.256;22.478;2023-04-16T00:16:01;7.40;99.90
26743;DHT22;14341;51.256;22.478;2023-04-16T00:19:06;7.30;99.90
26743;DHT22;14341;51.256;22.478;2023-04-16T00:22:09;7.30;99.90
26743;DHT22;14341;51.256;22.478;2023-04-16T00:25:13;7.20;99.90
26743;DHT22;14341;51.256;22.478;2023-04-16T00:28:17;7.20;99.90
26743;DHT22;14341;51.256;22.478;2023-04-16T00:31:26;7.20;99.90
26743;DHT22;14341;51.256;22.478;2023-04-16T00:34:31;7.10;99.90
26743;DHT22;14341;51.256;22.478;2023-04-16T00:37:35;7.00;99.90
26743;DHT22;14341;51.256;22.478;2023-04-16T00:40:38;7.00;99.90
26743;DHT22;14341;51.256;22.478;2023-04-16T00:43:42;6.90;99.90
26743;DHT22;14341;51.256;22.478;2023-04-16T00:46:45;6.90;99.90
26743;DHT22;14341;51.256;22.478;2023-04-16T00:49:51;6.90;99.90
26743;DHT22;14341;51.256;22.478;2023-04-16T00:52:54;7.00;99.90
26743;DHT22;14341;51.256;22.478;2023-04-16T00:55:59;7.10;99.90
26743;DHT22;14341;51.256;22.478;2023-04-16T00:59:03;7.20;99.90
26743;DHT22;14341;51.256;22.478;2023-04-16T01:02:06;7.30;99.90
26743;DHT22;14341;51.256;22.478;2023-04-16T01:05:11;7.40;99.90
26743;DHT22;14341;51.256;22.478;2023-04-16T01:08:16;7.40;99.90
26743;DHT22;14341;51.256;22.478;2023-04-16T01:11:19;7.40;99.90
26743;DHT22;14341;51.256;22.478;2023-04-16T01:14:23;7.40;99.90
26743;DHT22;14341;51.256;22.478;2023-04-16T01:17:26;7.50;99.90
26743;DHT22;14341;51.256;22.478;2023-04-16T01:20:35;7.50;99.90
26743;DHT22;14341;51.256;22.478;2023-04-16T01:23:38;7.50;99.90
26743;DHT22;14341;51.256;22.478;2023-04-16T01:26:42;7.50;99.90
26743;DHT22;14341;51.256;22.478;2023-04-16T01:29:45;7.60;99.90
26743;DHT22;14341;51.256;22.478;2023-04-16T01:32:53;7.60;99.90
26743;DHT22;14341;51.256;22.478;2023-04-16T01:35:58;7.70;99.90
26743;DHT22;14341;51.256;22.478;2023-04-16T01:39:02;7.70;99.90
26743;DHT22;14341;51.256;22.478;2023-04-16T01:42:05;7.70;99.90
26743;DHT22;14341;51.256;22.478;2023-04-16T01:45:09;7.80;99.90
26743;DHT22;14341;51.256;22.478;2023-04-16T01:48:12;7.80;99.90
26743;DHT22;14341;51.256;22.478;2023-04-16T01:51:17;7.80;99.90
26743;DHT22;14341;51.256;22.478;2023-04-16T01:54:20;7.90;99.90
26743;DHT22;14341;51.256;22.478;2023-04-16T01:57:23;7.90;99.90
26743;DHT22;14341;51.256;22.478;2023-04-16T02:03:45;7.90;99.90
26743;DHT22;14341;51.256;22.478;2023-04-16T02:06:50;7.90;99.90
26743;DHT22;14341;51.256;22.478;2023-04-16T02:09:53;7.90;99.90
26743;DHT22;14341;51.256;22.478;2023-04-16T02:12:58;7.90;99.90
26743;DHT22;14341;51.256;22.478;2023-04-16T02:16:02;7.90;99.90
26743;DHT22;14341;51.256;22.478;2023-04-16T02:19:22;7.90;99.90
26743;DHT22;14341;51.256;22.478;2023-04-16T02:22:28;7.90;99.90
26743;DHT22;14341;51.256;22.478;2023-04-16T02:25:31;8.00;99.90
26743;DHT22;14341;51.256;22.478;2023-04-16T02:28:36;8.00;99.90
26743;DHT22;14341;51.256;22.478;2023-04-16T02:31:39;7.90;99.90
26743;DHT22;14341;51.256;22.478;2023-04-16T02:34:44;7.80;99.90
26743;DHT22;14341;51.256;22.478;2023-04-16T02:37:50;7.70;99.90
26743;DHT22;14341;51.256;22.478;2023-04-16T02:40:54;7.70;99.90
26743;DHT22;14341;51.256;22.478;2023-04-16T02:43:57;7.70;99.90
26743;DHT22;14341;51.256;22.478;2023-04-16T02:47:01;7.70;99.90
26743;DHT22;14341;51.256;22.478;2023-04-16T02:50:05;7.60;99.90
26743;DHT22;14341;51.256;22.478;2023-04-16T02:53:10;7.60;99.90
26743;DHT22;14341;51.256;22.478;2023-04-16T02:56:14;7.60;99.90
26743;DHT22;14341;51.256;22.478;2023-04-16T02:59:17;7.60;99.90
26743;DHT22;14341;51.256;22.478;2023-04-16T03:02:20;7.60;99.90
26743;DHT22;14341;51.256;22.478;2023-04-16T03:05:24;7.60;99.90
26743;DHT22;14341;51.256;22.478;2023-04-16T03:08:28;7.60;99.90
26743;DHT22;14341;51.256;22.478;2023-04-16T03:11:32;7.60;99.90
26743;DHT22;14341;51.256;22.478;2023-04-16T03:14:35;7.60;99.90
26743;DHT22;14341;51.256;22.478;2023-04-16T03:17:38;7.60;99.90
26743;DHT22;14341;51.256;22.478;2023-04-16T03:20:43;7.70;99.90
26743;DHT22;14341;51.256;22.478;2023-04-16T03:23:48;7.60;99.90
26743;DHT22;14341;51.256;22.478;2023-04-16T03:26:51;7.70;99.90
26743;DHT22;14341;51.256;22.478;2023-04-16T03:29:57;7.60;99.90
26743;DHT22;14341;51.256;22.478;2023-04-16T03:33:01;7.50;99.90
26743;DHT22;14341;51.256;22.478;2023-04-16T03:36:05;7.60;99.90
26743;DHT22;14341;51.256;22.478;2023-04-16T03:39:10;7.50;99.90
26743;DHT22;14341;51.256;22.478;2023-04-16T03:42:13;7.40;99.90
26743;DHT22;14341;51.256;22.478;2023-04-16T03:45:17;7.40;99.90
26743;DHT22;14341;51.256;22.478;2023-04-16T03:48:23;7.30;99.90
26743;DHT22;14341;51.256;22.478;2023-04-16T03:51:27;7.30;99.90
26743;DHT22;14341;51.256;22.478;2023-04-16T03:54:33;7.30;99.90
26743;DHT22;14341;51.256;22.478;2023-04-16T03:57:48;7.30;99.90
26743;DHT22;14341;51.256;22.478;2023-04-16T04:00:52;7.30;99.90
26743;DHT22;14341;51.256;22.478;2023-04-16T04:03:56;7.30;99.90
26743;DHT22;14341;51.256;22.478;2023-04-16T04:06:59;7.30;99.90
26743;DHT22;14341;51.256;22.478;2023-04-16T04:10:05;7.30;99.90
26743;DHT22;14341;51.256;22.478;2023-04-16T04:13:13;7.20;99.90
26743;DHT22;14341;51.256;22.478;2023-04-16T04:16:16;7.30;99.90
26743;DHT22;14341;51.256;22.478;2023-04-16T04:19:20;7.30;99.90
26743;DHT22;14341;51.256;22.478;2023-04-16T04:22:23;7.30;99.90
26743;DHT22;14341;51.256;22.478;2023-04-16T04:25:28;7.30;99.90
26743;DHT22;14341;51.256;22.478;2023-04-16T04:28:34;7.40;99.90
26743;DHT22;14341;51.256;22.478;2023-04-16T04:31:38;7.50;99.90
26743;DHT22;14341;51.256;22.478;2023-04-16T04:34:42;7.60;99.90
26743;DHT22;14341;51.256;22.478;2023-04-16T04:37:46;7.50;99.90
26743;DHT22;14341;51.256;22.478;2023-04-16T04:40:54;7.50;99.90
26743;DHT22;14341;51.256;22.478;2023-04-16T04:44:00;7.60;99.90
26743;DHT22;14341;51.256;22.478;2023-04-16T04:47:03;7.60;99.90
26743;DHT22;14341;51.256;22.478;2023-04-16T04:50:07;7.70;99.90
26743;DHT22;14341;51.256;22.478;2023-04-16T04:53:12;7.80;99.90
26743;DHT22;14341;51.256;22.478;2023-04-16T04:56:18;7.90;99.90
26743;DHT22;14341;51.256;22.478;2023-04-16T04:59:22;7.80;99.90
26743;DHT22;14341;51.256;22.478;2023-04-16T05:02:26;7.90;99.90
26743;DHT22;14341;51.256;22.478;2023-04-16T05:05:29;7.90;99.90
26743;DHT22;14341;51.256;22.478;2023-04-16T05:08:33;8.00;99.90
26743;DHT22;14341;51.256;22.478;2023-04-16T05:11:40;8.10;99.90
26743;DHT22;14341;51.256;22.478;2023-04-16T05:14:43;8.10;99.90
26743;DHT22;14341;51.256;22.478;2023-04-16T05:17:47;8.00;99.90
26743;DHT22;14341;51.256;22.478;2023-04-16T05:20:50;7.90;99.90
26743;DHT22;14341;51.256;22.478;2023-04-16T05:23:54;8.00;99.90
26743;DHT22;14341;51.256;22.478;2023-04-16T05:26:58;8.10;99.90
26743;DHT22;14341;51.256;22.478;2023-04-16T05:30:02;8.20;99.90
26743;DHT22;14341;51.256;22.478;2023-04-16T05:33:05;8.40;99.90
26743;DHT22;14341;51.256;22.478;2023-04-16T05:36:09;8.40;99.90
26743;DHT22;14341;51.256;22.478;2023-04-16T05:39:12;8.30;99.90
26743;DHT22;14341;51.256;22.478;2023-04-16T05:42:17;8.60;99.90
26743;DHT22;14341;51.256;22.478;2023-04-16T05:45:21;8.60;99.90
26743;DHT22;14341;51.256;22.478;2023-04-16T05:48:24;8.60;99.90
26743;DHT22;14341;51.256;22.478;2023-04-16T05:51:28;8.60;99.90
26743;DHT22;14341;51.256;22.478;2023-04-16T05:54:33;8.70;99.90
26743;DHT22;14341;51.256;22.478;2023-04-16T05:57:37;8.60;99.90
26743;DHT22;14341;51.256;22.478;2023-04-16T06:00:41;8.60;99.90
26743;DHT22;14341;51.256;22.478;2023-04-16T06:03:44;8.80;99.90
26743;DHT22;14341;51.256;22.478;2023-04-16T06:06:48;9.00;99.90
26743;DHT22;14341;51.256;22.478;2023-04-16T06:09:51;9.10;99.90
26743;DHT22;14341;51.256;22.478;2023-04-16T06:12:56;9.10;99.90
26743;DHT22;14341;51.256;22.478;2023-04-16T06:15:59;9.20;99.90
26743;DHT22;14341;51.256;22.478;2023-04-16T06:19:02;9.20;99.90
26743;DHT22;14341;51.256;22.478;2023-04-16T06:22:06;9.40;99.90
26743;DHT22;14341;51.256;22.478;2023-04-16T06:25:10;9.40;99.90
26743;DHT22;14341;51.256;22.478;2023-04-16T06:28:14;9.20;99.90
26743;DHT22;14341;51.256;22.478;2023-04-16T06:31:18;9.20;99.90
26743;DHT22;14341;51.256;22.478;2023-04-16T06:34:22;9.30;99.90
26743;DHT22;14341;51.256;22.478;2023-04-16T06:37:25;9.30;99.90
26743;DHT22;14341;51.256;22.478;2023-04-16T06:40:28;9.50;99.90
26743;DHT22;14341;51.256;22.478;2023-04-16T06:43:33;9.70;99.90
26743;DHT22;14341;51.256;22.478;2023-04-16T06:46:37;9.70;99.90
26743;DHT22;14341;51.256;22.478;2023-04-16T06:49:40;9.80;99.90
26743;DHT22;14341;51.256;22.478;2023-04-16T06:52:44;9.70;99.90
26743;DHT22;14341;51.256;22.478;2023-04-16T06:55:47;9.80;99.90
26743;DHT22;14341;51.256;22.478;2023-04-16T06:58:52;9.90;99.90
26743;DHT22;14341;51.256;22.478;2023-04-16T07:01:55;9.90;99.90
26743;DHT22;14341;51.256;22.478;2023-04-16T07:04:59;10.00;99.90
26743;DHT22;14341;51.256;22.478;2023-04-16T07:08:02;9.90;99.90
26743;DHT22;14341;51.256;22.478;2023-04-16T07:11:06;9.70;99.90
26743;DHT22;14341;51.256;22.478;2023-04-16T07:14:10;9.80;99.90
26743;DHT22;14341;51.256;22.478;2023-04-16T07:17:14;10.20;99.90
26743;DHT22;14341;51.256;22.478;2023-04-16T07:20:17;10.40;99.90
26743;DHT22;14341;51.256;22.478;2023-04-16T07:23:21;10.60;99.90
26743;DHT22;14341;51.256;22.478;2023-04-16T07:26:24;10.80;99.90
26743;DHT22;14341;51.256;22.478;2023-04-16T07:29:29;10.80;99.90
26743;DHT22;14341;51.256;22.478;2023-04-16T07:32:32;10.90;99.90
26743;DHT22;14341;51.256;22.478;2023-04-16T07:35:36;10.70;99.90
26743;DHT22;14341;51.256;22.478;2023-04-16T07:38:40;10.90;99.90
26743;DHT22;14341;51.256;22.478;2023-04-16T07:41:43;11.00;99.90
26743;DHT22;14341;51.256;22.478;2023-04-16T07:44:48;11.00;99.90
26743;DHT22;14341;51.256;22.478;2023-04-16T07:47:51;10.80;99.90
26743;DHT22;14341;51.256;22.478;2023-04-16T07:50:55;10.90;99.90
26743;DHT22;14341;51.256;22.478;2023-04-16T07:53:58;11.00;99.90
26743;DHT22;14341;51.256;22.478;2023-04-16T07:57:01;11.00;99.90
26743;DHT22;14341;51.256;22.478;2023-04-16T08:00:07;11.20;99.90
26743;DHT22;14341;51.256;22.478;2023-04-16T08:03:16;11.40;99.90
26743;DHT22;14341;51.256;22.478;2023-04-16T08:06:20;11.30;99.90
26743;DHT22;14341;51.256;22.478;2023-04-16T08:09:26;11.20;99.90
26743;DHT22;14341;51.256;22.478;2023-04-16T08:12:30;11.40;99.90
26743;DHT22;14341;51.256;22.478;2023-04-16T08:15:35;11.60;99.90
26743;DHT22;14341;51.256;22.478;2023-04-16T08:18:38;11.90;99.90
26743;DHT22;14341;51.256;22.478;2023-04-16T08:21:42;12.20;99.90
26743;DHT22;14341;51.256;22.478;2023-04-16T08:24:45;12.40;99.90
26743;DHT22;14341;51.256;22.478;2023-04-16T08:27:49;12.60;99.90
26743;DHT22;14341;51.256;22.478;2023-04-16T08:30:54;12.70;99.90
26743;DHT22;14341;51.256;22.478;2023-04-16T08:34:00;12.80;99.90
26743;DHT22;14341;51.256;22.478;2023-04-16T08:37:20;13.00;99.90
26743;DHT22;14341;51.256;22.478;2023-04-16T08:40:35;13.10;99.90
26743;DHT22;14341;51.256;22.478;2023-04-16T08:43:49;12.90;99.90
26743;DHT22;14341;51.256;22.478;2023-04-16T08:47:03;12.30;99.90
26743;DHT22;14341;51.256;22.478;2023-04-16T08:50:16;12.10;99.90
26743;DHT22;14341;51.256;22.478;2023-04-16T08:53:27;12.20;99.90
26743;DHT22;14341;51.256;22.478;2023-04-16T08:56:36;12.50;99.90
26743;DHT22;14341;51.256;22.478;2023-04-16T08:59:47;13.20;99.90
26743;DHT22;14341;51.256;22.478;2023-04-16T09:02:55;13.50;99.90
26743;DHT22;14341;51.256;22.478;2023-04-16T09:06:06;13.70;99.90
26743;DHT22;14341;51.256;22.478;2023-04-16T09:09:13;13.80;99.90
26743;DHT22;14341;51.256;22.478;2023-04-16T09:12:29;13.70;99.90
26743;DHT22;14341;51.256;22.478;2023-04-16T09:15:39;13.80;99.90
26743;DHT22;14341;51.256;22.478;2023-04-16T09:18:53;13.90;99.90
26743;DHT22;14341;51.256;22.478;2023-04-16T09:22:00;13.80;99.90
26743;DHT22;14341;51.256;22.478;2023-04-16T09:25:06;13.70;99.90
26743;DHT22;14341;51.256;22.478;2023-04-16T09:28:26;13.70;99.90
26743;DHT22;14341;51.256;22.478;2023-04-16T09:32:01;14.20;99.90
26743;DHT22;14341;51.256;22.478;2023-04-16T09:35:09;14.20;99.90
26743;DHT22;14341;51.256;22.478;2023-04-16T09:38:12;14.40;99.90
26743;DHT22;14341;51.256;22.478;2023-04-16T09:41:15;14.70;99.90
26743;DHT22;14341;51.256;22.478;2023-04-16T09:44:19;14.50;99.90
26743;DHT22;14341;51.256;22.478;2023-04-16T09:47:24;14.50;99.90
26743;DHT22;14341;51.256;22.478;2023-04-16T09:50:29;14.60;99.90
26743;DHT22;14341;51.256;22.478;2023-04-16T09:53:32;14.70;99.90
26743;DHT22;14341;51.256;22.478;2023-04-16T09:56:39;14.40;99.90
26743;DHT22;14341;51.256;22.478;2023-04-16T09:59:43;14.30;99.90
26743;DHT22;14341;51.256;22.478;2023-04-16T10:02:46;14.30;99.90
26743;DHT22;14341;51.256;22.478;2023-04-16T10:05:54;14.60;99.90
26743;DHT22;14341;51.256;22.478;2023-04-16T10:08:57;15.20;99.90
26743;DHT22;14341;51.256;22.478;2023-04-16T10:12:00;15.40;99.90
26743;DHT22;14341;51.256;22.478;2023-04-16T10:15:05;15.70;94.90
26743;DHT22;14341;51.256;22.478;2023-04-16T10:18:09;15.80;82.80
26743;DHT22;14341;51.256;22.478;2023-04-16T10:21:13;15.90;83.00
26743;DHT22;14341;51.256;22.478;2023-04-16T10:24:17;15.90;77.60
26743;DHT22;14341;51.256;22.478;2023-04-16T10:27:21;15.60;77.90
26743;DHT22;14341;51.256;22.478;2023-04-16T10:30:26;16.00;98.30
26743;DHT22;14341;51.256;22.478;2023-04-16T10:33:32;16.00;90.80
26743;DHT22;14341;51.256;22.478;2023-04-16T10:36:38;16.30;88.50
26743;DHT22;14341;51.256;22.478;2023-04-16T10:39:42;16.20;51.00
26743;DHT22;14341;51.256;22.478;2023-04-16T10:42:53;15.90;59.30
26743;DHT22;14341;51.256;22.478;2023-04-16T10:45:58;15.50;65.20
26743;DHT22;14341;51.256;22.478;2023-04-16T10:49:22;15.60;70.50
26743;DHT22;14341;51.256;22.478;2023-04-16T10:52:28;15.40;61.40
26743;DHT22;14341;51.256;22.478;2023-04-16T10:55:31;15.10;93.20
26743;DHT22;14341;51.256;22.478;2023-04-16T10:58:35;15.40;72.50
26743;DHT22;14341;51.256;22.478;2023-04-16T11:01:41;16.20;89.50
26743;DHT22;14341;51.256;22.478;2023-04-16T11:04:45;16.60;56.90
26743;DHT22;14341;51.256;22.478;2023-04-16T11:07:52;16.60;34.40
26743;DHT22;14341;51.256;22.478;2023-04-16T11:10:57;17.10;77.70
26743;DHT22;14341;51.256;22.478;2023-04-16T11:14:03;17.80;1.00
26743;DHT22;14341;51.256;22.478;2023-04-16T11:17:09;18.30;1.00
26743;DHT22;14341;51.256;22.478;2023-04-16T11:20:19;17.40;1.00
26743;DHT22;14341;51.256;22.478;2023-04-16T11:23:38;17.10;1.00
26743;DHT22;14341;51.256;22.478;2023-04-16T11:26:53;16.70;1.00
26743;DHT22;14341;51.256;22.478;2023-04-16T11:30:04;16.90;1.00
26743;DHT22;14341;51.256;22.478;2023-04-16T11:33:25;17.10;1.00
26743;DHT22;14341;51.256;22.478;2023-04-16T11:36:42;16.80;1.00
26743;DHT22;14341;51.256;22.478;2023-04-16T11:39:53;16.90;1.00
26743;DHT22;14341;51.256;22.478;2023-04-16T11:43:01;17.60;1.00
26743;DHT22;14341;51.256;22.478;2023-04-16T11:46:11;18.00;1.00
26743;DHT22;14341;51.256;22.478;2023-04-16T11:49:30;17.80;1.00
26743;DHT22;14341;51.256;22.478;2023-04-16T11:52:41;17.60;1.00
26743;DHT22;14341;51.256;22.478;2023-04-16T11:55:56;19.00;1.00
26743;DHT22;14341;51.256;22.478;2023-04-16T11:59:10;18.10;1.00
26743;DHT22;14341;51.256;22.478;2023-04-16T12:02:36;18.80;1.00
26743;DHT22;14341;51.256;22.478;2023-04-16T12:05:42;18.60;1.00
26743;DHT22;14341;51.256;22.478;2023-04-16T12:08:45;19.10;1.00
26743;DHT22;14341;51.256;22.478;2023-04-16T12:11:54;18.30;1.00
26743;DHT22;14341;51.256;22.478;2023-04-16T12:15:02;18.40;1.00
26743;DHT22;14341;51.256;22.478;2023-04-16T12:18:06;18.20;1.00
26743;DHT22;14341;51.256;22.478;2023-04-16T12:21:12;18.80;1.00
26743;DHT22;14341;51.256;22.478;2023-04-16T12:24:20;18.40;1.00
26743;DHT22;14341;51.256;22.478;2023-04-16T12:27:40;18.40;1.00
26743;DHT22;14341;51.256;22.478;2023-04-16T12:30:49;18.20;1.00
26743;DHT22;14341;51.256;22.478;2023-04-16T12:34:02;18.70;1.00
26743;DHT22;14341;51.256;22.478;2023-04-16T12:37:06;19.50;99.90
26743;DHT22;14341;51.256;22.478;2023-04-16T12:40:12;19.40;99.90
26743;DHT22;14341;51.256;22.478;2023-04-16T12:43:24;19.60;99.90
26743;DHT22;14341;51.256;22.478;2023-04-16T12:46:27;19.20;99.90
26743;DHT22;14341;51.256;22.478;2023-04-16T12:49:42;18.40;99.90
26743;DHT22;14341;51.256;22.478;2023-04-16T12:52:46;17.30;1.00
26743;DHT22;14341;51.256;22.478;2023-04-16T12:55:57;17.10;1.00
26743;DHT22;14341;51.256;22.478;2023-04-16T12:59:02;17.10;1.00
26743;DHT22;14341;51.256;22.478;2023-04-16T13:02:07;17.30;1.00
26743;DHT22;14341;51.256;22.478;2023-04-16T13:05:16;18.30;1.00
26743;DHT22;14341;51.256;22.478;2023-04-16T13:08:22;18.00;1.00
26743;DHT22;14341;51.256;22.478;2023-04-16T13:11:25;18.60;1.00
26743;DHT22;14341;51.256;22.478;2023-04-16T13:14:35;18.50;1.00
26743;DHT22;14341;51.256;22.478;2023-04-16T13:17:41;19.00;99.90
26743;DHT22;14341;51.256;22.478;2023-04-16T13:20:45;18.70;99.90
26743;DHT22;14341;51.256;22.478;2023-04-16T13:23:48;18.80;1.00
26743;DHT22;14341;51.256;22.478;2023-04-16T13:26:58;19.20;1.00
26743;DHT22;14341;51.256;22.478;2023-04-16T13:30:04;19.40;99.90
26743;DHT22;14341;51.256;22.478;2023-04-16T13:33:15;19.30;99.90
26743;DHT22;14341;51.256;22.478;2023-04-16T13:36:22;18.50;99.90
26743;DHT22;14341;51.256;22.478;2023-04-16T13:39:29;18.10;1.00
26743;DHT22;14341;51.256;22.478;2023-04-16T13:42:39;18.90;1.00
26743;DHT22;14341;51.256;22.478;2023-04-16T13:45:45;18.50;1.00
26743;DHT22;14341;51.256;22.478;2023-04-16T13:48:53;18.40;99.90
26743;DHT22;14341;51.256;22.478;2023-04-16T13:51:58;17.90;1.00
26743;DHT22;14341;51.256;22.478;2023-04-16T13:55:07;17.90;1.00
26743;DHT22;14341;51.256;22.478;2023-04-16T13:58:20;18.00;1.00
26743;DHT22;14341;51.256;22.478;2023-04-16T14:01:29;18.50;1.00
26743;DHT22;14341;51.256;22.478;2023-04-16T14:04:32;18.30;99.90
26743;DHT22;14341;51.256;22.478;2023-04-16T14:07:38;18.30;99.90
26743;DHT22;14341;51.256;22.478;2023-04-16T14:10:44;18.50;99.90
26743;DHT22;14341;51.256;22.478;2023-04-16T14:13:48;19.10;99.90
26743;DHT22;14341;51.256;22.478;2023-04-16T14:16:54;18.60;99.90
26743;DHT22;14341;51.256;22.478;2023-04-16T14:20:05;17.40;99.90
26743;DHT22;14341;51.256;22.478;2023-04-16T14:23:10;18.20;1.00
26743;DHT22;14341;51.256;22.478;2023-04-16T14:26:13;18.50;1.00
26743;DHT22;14341;51.256;22.478;2023-04-16T14:29:19;18.50;99.90
26743;DHT22;14341;51.256;22.478;2023-04-16T14:32:26;18.20;99.90
26743;DHT22;14341;51.256;22.478;2023-04-16T14:35:29;18.40;99.90
26743;DHT22;14341;51.256;22.478;2023-04-16T14:38:33;18.70;99.90
26743;DHT22;14341;51.256;22.478;2023-04-16T14:41:38;18.20;99.90
26743;DHT22;14341;51.256;22.478;2023-04-16T14:44:44;18.50;99.90
26743;DHT22;14341;51.256;22.478;2023-04-16T14:47:49;18.70;99.90
26743;DHT22;14341;51.256;22.478;2023-04-16T14:50:52;19.40;99.90
26743;DHT22;14341;51.256;22.478;2023-04-16T14:53:56;19.70;99.90
26743;DHT22;14341;51.256;22.478;2023-04-16T14:57:01;18.90;99.90
26743;DHT22;14341;51.256;22.478;2023-04-16T15:00:13;18.80;99.90
26743;DHT22;14341;51.256;22.478;2023-04-16T15:03:22;18.70;99.90
26743;DHT22;14341;51.256;22.478;2023-04-16T15:06:27;18.10;99.90
26743;DHT22;14341;51.256;22.478;2023-04-16T15:09:30;17.80;99.90
26743;DHT22;14341;51.256;22.478;2023-04-16T15:12:33;17.60;1.00
26743;DHT22;14341;51.256;22.478;2023-04-16T15:15:38;18.20;99.90
26743;DHT22;14341;51.256;22.478;2023-04-16T15:18:45;18.70;99.90
26743;DHT22;14341;51.256;22.478;2023-04-16T15:21:50;18.90;99.90
26743;DHT22;14341;51.256;22.478;2023-04-16T15:24:54;19.30;99.90
26743;DHT22;14341;51.256;22.478;2023-04-16T15:28:01;19.10;99.90
26743;DHT22;14341;51.256;22.478;2023-04-16T15:31:09;18.90;99.90
26743;DHT22;14341;51.256;22.478;2023-04-16T15:34:14;18.20;99.90
26743;DHT22;14341;51.256;22.478;2023-04-16T15:37:19;17.80;99.90
26743;DHT22;14341;51.256;22.478;2023-04-16T15:40:28;18.20;99.90
26743;DHT22;14341;51.256;22.478;2023-04-16T15:43:32;18.40;99.90
26743;DHT22;14341;51.256;22.478;2023-04-16T15:46:35;18.20;99.90
26743;DHT22;14341;51.256;22.478;2023-04-16T15:49:43;18.00;99.90
26743;DHT22;14341;51.256;22.478;2023-04-16T15:52:49;17.80;99.90
26743;DHT22;14341;51.256;22.478;2023-04-16T15:55:53;18.00;99.90
26743;DHT22;14341;51.256;22.478;2023-04-16T15:59:00;17.80;99.90
26743;DHT22;14341;51.256;22.478;2023-04-16T16:02:07;17.80;99.90
26743;DHT22;14341;51.256;22.478;2023-04-16T16:05:13;17.50;1.00
26743;DHT22;14341;51.256;22.478;2023-04-16T16:08:21;17.40;1.00
26743;DHT22;14341;51.256;22.478;2023-04-16T16:11:28;17.20;1.00
26743;DHT22;14341;51.256;22.478;2023-04-16T16:14:33;17.20;1.00
26743;DHT22;14341;51.256;22.478;2023-04-16T16:17:41;17.90;1.00
26743;DHT22;14341;51.256;22.478;2023-04-16T16:20:57;17.50;1.00
26743;DHT22;14341;51.256;22.478;2023-04-16T16:24:06;17.30;1.00
26743;DHT22;14341;51.256;22.478;2023-04-16T16:27:10;17.10;1.00
26743;DHT22;14341;51.256;22.478;2023-04-16T16:30:13;16.90;1.00
26743;DHT22;14341;51.256;22.478;2023-04-16T16:33:19;16.40;1.00
26743;DHT22;14341;51.256;22.478;2023-04-16T16:36:32;15.90;1.00
26743;DHT22;14341;51.256;22.478;2023-04-16T16:39:39;15.90;1.00
26743;DHT22;14341;51.256;22.478;2023-04-16T16:42:43;15.40;46.30
26743;DHT22;14341;51.256;22.478;2023-04-16T16:45:46;15.00;81.20
26743;DHT22;14341;51.256;22.478;2023-04-16T16:48:50;14.80;95.10
26743;DHT22;14341;51.256;22.478;2023-04-16T16:51:56;14.60;99.30
26743;DHT22;14341;51.256;22.478;2023-04-16T16:55:01;14.40;99.90
26743;DHT22;14341;51.256;22.478;2023-04-16T16:58:04;14.10;99.90
26743;DHT22;14341;51.256;22.478;2023-04-16T17:01:08;13.90;99.90
26743;DHT22;14341;51.256;22.478;2023-04-16T17:04:14;13.60;99.90
26743;DHT22;14341;51.256;22.478;2023-04-16T17:07:23;13.50;99.90
26743;DHT22;14341;51.256;22.478;2023-04-16T17:10:27;13.30;99.90
26743;DHT22;14341;51.256;22.478;2023-04-16T17:13:30;13.00;99.90
26743;DHT22;14341;51.256;22.478;2023-04-16T17:16:40;12.90;99.90
26743;DHT22;14341;51.256;22.478;2023-04-16T17:19:47;12.80;99.90
26743;DHT22;14341;51.256;22.478;2023-04-16T17:22:54;12.70;99.90
26743;DHT22;14341;51.256;22.478;2023-04-16T17:25:59;12.50;99.90
26743;DHT22;14341;51.256;22.478;2023-04-16T17:29:07;12.20;99.90
26743;DHT22;14341;51.256;22.478;2023-04-16T17:32:12;12.10;99.90
26743;DHT22;14341;51.256;22.478;2023-04-16T17:35:21;12.00;99.90
26743;DHT22;14341;51.256;22.478;2023-04-16T17:38:28;11.90;99.90
26743;DHT22;14341;51.256;22.478;2023-04-16T17:41:33;11.70;99.90
26743;DHT22;14341;51.256;22.478;2023-04-16T17:44:39;11.60;99.90
26743;DHT22;14341;51.256;22.478;2023-04-16T17:47:43;11.50;99.90
26743;DHT22;14341;51.256;22.478;2023-04-16T17:50:47;11.40;99.90
26743;DHT22;14341;51.256;22.478;2023-04-16T17:53:54;11.30;99.90
26743;DHT22;14341;51.256;22.478;2023-04-16T17:56:58;11.30;99.90
26743;DHT22;14341;51.256;22.478;2023-04-16T18:00:01;11.10;99.90
26743;DHT22;14341;51.256;22.478;2023-04-16T18:03:12;11.10;99.90
26743;DHT22;14341;51.256;22.478;2023-04-16T18:06:17;11.00;99.90
26743;DHT22;14341;51.256;22.478;2023-04-16T18:09:22;10.90;99.90
26743;DHT22;14341;51.256;22.478;2023-04-16T18:12:26;10.80;99.90
26743;DHT22;14341;51.256;22.478;2023-04-16T18:15:34;10.70;99.90
26743;DHT22;14341;51.256;22.478;2023-04-16T18:18:38;10.60;99.90
26743;DHT22;14341;51.256;22.478;2023-04-16T18:21:41;10.60;99.90
26743;DHT22;14341;51.256;22.478;2023-04-16T18:24:47;10.50;99.90
26743;DHT22;14341;51.256;22.478;2023-04-16T18:27:50;10.40;99.90
26743;DHT22;14341;51.256;22.478;2023-04-16T18:30:56;10.40;99.90
26743;DHT22;14341;51.256;22.478;2023-04-16T18:34:04;10.30;99.90
26743;DHT22;14341;51.256;22.478;2023-04-16T18:37:08;10.20;99.90
26743;DHT22;14341;51.256;22.478;2023-04-16T18:40:14;10.10;99.90
26743;DHT22;14341;51.256;22.478;2023-04-16T18:43:17;10.00;99.90
26743;DHT22;14341;51.256;22.478;2023-04-16T18:46:21;9.90;99.90
26743;DHT22;14341;51.256;22.478;2023-04-16T18:49:26;9.80;99.90
26743;DHT22;14341;51.256;22.478;2023-04-16T18:52:30;9.80;99.90
26743;DHT22;14341;51.256;22.478;2023-04-16T18:55:35;9.80;99.90
26743;DHT22;14341;51.256;22.478;2023-04-16T18:58:39;9.70;99.90
26743;DHT22;14341;51.256;22.478;2023-04-16T19:01:42;9.70;99.90
26743;DHT22;14341;51.256;22.478;2023-04-16T19:04:45;9.60;99.90
26743;DHT22;14341;51.256;22.478;2023-04-16T19:07:49;9.50;99.90
26743;DHT22;14341;51.256;22.478;2023-04-16T19:10:54;9.50;99.90
26743;DHT22;14341;51.256;22.478;2023-04-16T19:13:58;9.40;99.90
26743;DHT22;14341;51.256;22.478;2023-04-16T19:17:03;9.40;99.90
26743;DHT22;14341;51.256;22.478;2023-04-16T19:20:08;9.30;99.90
26743;DHT22;14341;51.256;22.478;2023-04-16T19:23:12;9.30;99.90
26743;DHT22;14341;51.256;22.478;2023-04-16T19:26:18;9.20;99.90
26743;DHT22;14341;51.256;22.478;2023-04-16T19:29:21;9.10;99.90